Aviation Digital Data Service (ADDS)

Output produced by METARs form (1046 UTC 19 January 2019)
found at http://www.aviationweather.gov/metar/data/
 
OEAB 191000Z 17013KT 9999 SCT020 16/09 Q1024 NOSIG
TAF OEAB 190500Z 1906/1915 22010G20KT 7000 FEW020
       
OEAH 191000Z 34015KT 4000 BLDU NSC 17/M04 Q1021 NOSIG
TAF OEAH 182300Z 1900/2006 35008G18KT 8000 NSC 
     TEMPO 1900/1912 4000 DU
       
OEBA 191000Z 18007KT 5000 HZ SKC 21/11 Q1020 NOSIG
TAF OEBA 182300Z 1900/2006 VRB03KT 7000 NSC 
     TEMPO 1900/1912 5000 DU 
     BECMG 1906/1908 24014KT
       
OESK 191000Z 00000KT CAVOK 12/M01 Q1025
TAF OESK 182300Z 1900/2006 09005G15KT 8000 SCT040
       
OERR 191000Z 00000KT CAVOK 11/04 Q1022 NOSIG
TAF OERR 182300Z 1900/2006 32005G15KT 8000 NSC
       
OEBH 191000Z 07003KT 1600 DU SKC 20/00 Q1019 NOSIG
TAF OEBH 182300Z 1900/2006 VRB03KT 7000 NSC 
     TEMPO 1900/1912 3000 DU 
     BECMG 1909/1911 26011KT
       
OEGS 191000Z 10005KT 5000 DU NSC 14/05 Q1021
TAF OEGS 182300Z 1900/2006 06005G15KT 8000 NSC 
     TEMPO 1900/1912 4000 DU
       
OEGT 191000Z 11004KT CAVOK 11/M01 Q1022 NOSIG
TAF OEGT 182300Z 1900/2006 VRB03KT 8000 SCT040 
     BECMG 1906/1908 14012KT
       
OEHL 191000Z 19004KT CAVOK 13/01 Q1022
TAF OEHL 182300Z 1900/2006 36006KT 8000 NSC 
     BECMG 1906/1908 08013KT
       
OEGN 191000Z 21006KT 180V240 9999 SCT030 31/21 Q1014 NOSIG
TAF OEGN 190500Z 1906/1915 25012KT 7000 SCT030
       
OEJB 191000Z AUTO 35013KT CAVOK 17/01 Q1021 NOSIG
OEDR 191000Z 34018KT 9999 SCT030 18/02 Q1019 NOSIG
TAF OEDR 190800Z 1912/2018 35015KT 8000 SKC 
     BECMG 1918/1920 28008KT
       
OEJN 191000Z 28006KT 9999 SCT040 27/15 Q1014 NOSIG
TAF OEJN 190500Z 1906/2012 03006KT 7000 FEW040 
     BECMG 1906/1908 33014KT
       
OEDF 191000Z 32015KT CAVOK 17/01 Q1021 NOSIG
TAF OEDF 190330Z 1906/2012 33015KT 8000 NSC 
     TEMPO 1913/1915 32010KT
       
OEKM 191000Z 23016KT CAVOK 20/07 Q1024 NOSIG
TAF OEKM 190500Z 1906/1915 22010G20KT 7000 FEW020
       
OERK 191000Z 35005KT 6000 SKC 16/M04 Q1022 NOSIG
TAF OERK 190500Z 1906/2012 02010KT 7000 NSC 
     TEMPO 1906/1912 4000 DU
       
TAF OEKK 190500Z 1906/1920 33010KT 5000 DU NSC
       
OENG 191000Z 09004KT 1000 DU SKC 20/M01 Q1019 NOSIG
TAF OENG 182300Z 1900/2006 VRB03KT 2000 DU NSC 
     TEMPO 1900/1912 0800 DU 
     BECMG 1906/1908 13010KT
       
OEMA 191000Z 12009KT 2700 DU SKC 19/M07 Q1017 NOSIG
TAF OEMA 190500Z 1906/2012 08008G18KT 7000 NSC 
     TEMPO 1906/1912 4000 DU BLDU
       
OEPA 191000Z 35004KT 6000 SKC 13/00 Q1023 NOSIG
TAF OEPA 182300Z 1900/2006 33006G16KT 8000 FEW040 
     TEMPO 1900/1912 4500 DU BLDU
       
OERF 191000Z 36004KT CAVOK 19/M05 Q1023
TAF OERF 182300Z 1900/2006 VRB03KT 7000 NSC 
     BECMG 1905/1907 32013KT
       
TAF OERY 182300Z 1900/2006 VRB03KT 8000 NSC 
     TEMPO 1900/1912 4000 DU 
     BECMG 1906/1908 03013KT
       
OESH 191000Z 09009KT 2000 DU SKC 21/03 Q1018 NOSIG
TAF OESH 182300Z 1900/2006 VRB03KT 2000 DU NSC 
     TEMPO 1900/1912 1000 DU 
     BECMG 1906/1908 09010KT
       
OETB 191000Z 07011KT CAVOK 16/M05 Q1019 NOSIG
TAF OETB 190500Z 1906/1915 10010KT CAVOK
       
OETF 191000Z 36004KT 7000 NSC 21/07 Q1020 NOSIG
TAF OETF 190500Z 1906/1924 27006G16KT 7000 NSC 
     TEMPO 1906/1912 4000 DU BLDU
       
OETR 191000Z 14006KT CAVOK 09/00 Q1022
TAF OETR 182300Z 1900/2006 VRB03KT 8000 SCT040 
     BECMG 1906/1908 14012KT
       
OEWD 191000Z 12008KT 5000 DU SKC 19/01 Q1019 NOSIG
TAF OEWD 182300Z 1900/2006 VRB03KT 6000 SKC 
     TEMPO 1900/1912 3000 DU 
     BECMG 1906/1908 11013KT
       
OEWJ 191000Z 25007KT CAVOK 24/09 Q1016 NOSIG
TAF OEWJ 182300Z 1900/2006 08006KT 8000 SKC 
     TEMPO 1900/1912 4000 DU 
     BECMG 1908/1910 30011KT
       
OEYN 191000Z 00000KT 8000 NSC 27/06 Q1013 NOSIG
TAF OEYN 190500Z 1906/1915 04010G20KT 7000 NSC 
     TEMPO 1906/1912 3500 DU BLDU 
     BECMG 1910/1912 29014KT